sensor_id;sensor_type;location;lat;lon;timestamp;temperature;humidity
52187;DHT22;38161;53.020;6.598;2022-09-09T00:00:31;14.50;99.90
52187;DHT22;38161;53.020;6.598;2022-09-09T00:03:19;14.40;99.90
52187;DHT22;38161;53.020;6.598;2022-09-09T00:05:59;14.50;99.90
52187;DHT22;38161;53.020;6.598;2022-09-09T00:11:33;14.50;99.90
52187;DHT22;38161;53.020;6.598;2022-09-09T00:14:03;14.50;99.90
52187;DHT22;38161;53.020;6.598;2022-09-09T00:16:36;14.50;99.90
52187;DHT22;38161;53.020;6.598;2022-09-09T00:19:10;14.50;99.90
52187;DHT22;38161;53.020;6.598;2022-09-09T00:21:57;14.40;99.90
52187;DHT22;38161;53.020;6.598;2022-09-09T00:24:32;14.40;99.90
52187;DHT22;38161;53.020;6.598;2022-09-09T00:27:06;14.40;99.90
52187;DHT22;38161;53.020;6.598;2022-09-09T00:29:45;14.40;99.90
52187;DHT22;38161;53.020;6.598;2022-09-09T00:32:17;14.40;99.90
52187;DHT22;38161;53.020;6.598;2022-09-09T00:34:56;14.40;99.90
52187;DHT22;38161;53.020;6.598;2022-09-09T00:37:25;14.40;99.90
52187;DHT22;38161;53.020;6.598;2022-09-09T00:39:55;14.40;99.90
52187;DHT22;38161;53.020;6.598;2022-09-09T00:42:52;14.40;99.90
52187;DHT22;38161;53.020;6.598;2022-09-09T00:48:10;14.30;99.90
52187;DHT22;38161;53.020;6.598;2022-09-09T00:51:10;14.30;99.90
52187;DHT22;38161;53.020;6.598;2022-09-09T00:54:09;14.30;99.90
52187;DHT22;38161;53.020;6.598;2022-09-09T00:56:48;14.20;99.90
52187;DHT22;38161;53.020;6.598;2022-09-09T01:01:48;14.10;99.90
52187;DHT22;38161;53.020;6.598;2022-09-09T01:04:16;14.10;99.90
52187;DHT22;38161;53.020;6.598;2022-09-09T01:06:51;14.10;99.90
52187;DHT22;38161;53.020;6.598;2022-09-09T01:09:35;14.00;99.90
52187;DHT22;38161;53.020;6.598;2022-09-09T01:20:36;14.00;99.90
52187;DHT22;38161;53.020;6.598;2022-09-09T01:23:25;14.00;99.90
52187;DHT22;38161;53.020;6.598;2022-09-09T01:28:35;14.00;99.90
52187;DHT22;38161;53.020;6.598;2022-09-09T01:31:04;13.90;99.90
52187;DHT22;38161;53.020;6.598;2022-09-09T01:33:31;14.00;99.90
52187;DHT22;38161;53.020;6.598;2022-09-09T01:35:58;14.00;99.90
52187;DHT22;38161;53.020;6.598;2022-09-09T01:38:28;14.00;99.90
52187;DHT22;38161;53.020;6.598;2022-09-09T01:40:54;14.00;99.90
52187;DHT22;38161;53.020;6.598;2022-09-09T01:43:21;14.00;99.90
52187;DHT22;38161;53.020;6.598;2022-09-09T01:45:50;14.00;99.90
52187;DHT22;38161;53.020;6.598;2022-09-09T01:48:18;14.00;99.90
52187;DHT22;38161;53.020;6.598;2022-09-09T01:50:44;14.00;99.90
52187;DHT22;38161;53.020;6.598;2022-09-09T01:53:11;14.00;99.90
52187;DHT22;38161;53.020;6.598;2022-09-09T01:55:40;14.00;99.90
52187;DHT22;38161;53.020;6.598;2022-09-09T02:03:32;14.00;99.90
52187;DHT22;38161;53.020;6.598;2022-09-09T02:08:54;14.00;99.90
52187;DHT22;38161;53.020;6.598;2022-09-09T02:11:25;14.00;99.90
52187;DHT22;38161;53.020;6.598;2022-09-09T02:13:56;14.00;99.90
52187;DHT22;38161;53.020;6.598;2022-09-09T02:16:27;14.00;99.90
52187;DHT22;38161;53.020;6.598;2022-09-09T02:19:28;14.00;99.90
52187;DHT22;38161;53.020;6.598;2022-09-09T02:21:57;14.10;99.90
52187;DHT22;38161;53.020;6.598;2022-09-09T02:24:27;14.10;99.90
52187;DHT22;38161;53.020;6.598;2022-09-09T02:26:55;14.10;99.90
52187;DHT22;38161;53.020;6.598;2022-09-09T02:29:29;14.10;99.90
52187;DHT22;38161;53.020;6.598;2022-09-09T02:31:58;14.10;99.90
52187;DHT22;38161;53.020;6.598;2022-09-09T02:34:26;14.20;99.90
52187;DHT22;38161;53.020;6.598;2022-09-09T02:36:53;14.20;99.90
52187;DHT22;38161;53.020;6.598;2022-09-09T02:39:20;14.20;99.90
52187;DHT22;38161;53.020;6.598;2022-09-09T02:41:46;14.20;99.90
52187;DHT22;38161;53.020;6.598;2022-09-09T02:44:16;14.20;99.90
52187;DHT22;38161;53.020;6.598;2022-09-09T02:52:10;14.30;99.90
52187;DHT22;38161;53.020;6.598;2022-09-09T02:54:41;14.20;99.90
52187;DHT22;38161;53.020;6.598;2022-09-09T02:57:11;14.30;99.90
52187;DHT22;38161;53.020;6.598;2022-09-09T02:59:38;14.30;99.90
52187;DHT22;38161;53.020;6.598;2022-09-09T03:02:04;14.30;99.90
52187;DHT22;38161;53.020;6.598;2022-09-09T03:04:30;14.30;99.90
52187;DHT22;38161;53.020;6.598;2022-09-09T03:06:58;14.30;99.90
52187;DHT22;38161;53.020;6.598;2022-09-09T03:09:24;14.40;99.90
52187;DHT22;38161;53.020;6.598;2022-09-09T03:11:51;14.40;99.90
52187;DHT22;38161;53.020;6.598;2022-09-09T03:14:17;14.40;99.90
52187;DHT22;38161;53.020;6.598;2022-09-09T03:16:47;14.40;99.90
52187;DHT22;38161;53.020;6.598;2022-09-09T03:19:13;14.50;99.90
52187;DHT22;38161;53.020;6.598;2022-09-09T03:21:39;14.40;99.90
52187;DHT22;38161;53.020;6.598;2022-09-09T03:24:05;14.50;99.90
52187;DHT22;38161;53.020;6.598;2022-09-09T03:26:32;14.50;99.90
52187;DHT22;38161;53.020;6.598;2022-09-09T03:28:58;14.50;99.90
52187;DHT22;38161;53.020;6.598;2022-09-09T03:31:26;14.50;99.90
52187;DHT22;38161;53.020;6.598;2022-09-09T03:33:56;14.50;99.90
52187;DHT22;38161;53.020;6.598;2022-09-09T03:36:24;14.50;99.90
52187;DHT22;38161;53.020;6.598;2022-09-09T03:38:52;14.50;99.90
52187;DHT22;38161;53.020;6.598;2022-09-09T03:41:17;14.50;99.90
52187;DHT22;38161;53.020;6.598;2022-09-09T03:43:43;14.50;99.90
52187;DHT22;38161;53.020;6.598;2022-09-09T03:46:10;14.50;99.90
52187;DHT22;38161;53.020;6.598;2022-09-09T03:48:36;14.60;99.90
52187;DHT22;38161;53.020;6.598;2022-09-09T03:51:01;14.50;99.90
52187;DHT22;38161;53.020;6.598;2022-09-09T03:53:29;14.60;99.90
52187;DHT22;38161;53.020;6.598;2022-09-09T03:55:55;14.50;99.90
52187;DHT22;38161;53.020;6.598;2022-09-09T03:58:23;14.50;99.90
52187;DHT22;38161;53.020;6.598;2022-09-09T04:01:14;14.50;99.90
52187;DHT22;38161;53.020;6.598;2022-09-09T04:03:40;14.50;99.90
52187;DHT22;38161;53.020;6.598;2022-09-09T04:06:07;14.50;99.90
52187;DHT22;38161;53.020;6.598;2022-09-09T04:08:35;14.50;99.90
52187;DHT22;38161;53.020;6.598;2022-09-09T04:11:02;14.50;99.90
52187;DHT22;38161;53.020;6.598;2022-09-09T04:13:30;14.50;99.90
52187;DHT22;38161;53.020;6.598;2022-09-09T04:16:00;14.50;99.90
52187;DHT22;38161;53.020;6.598;2022-09-09T04:18:27;14.50;99.90
52187;DHT22;38161;53.020;6.598;2022-09-09T04:20:53;14.50;99.90
52187;DHT22;38161;53.020;6.598;2022-09-09T04:23:20;14.50;99.90
52187;DHT22;38161;53.020;6.598;2022-09-09T04:25:51;14.50;99.90
52187;DHT22;38161;53.020;6.598;2022-09-09T04:28:18;14.50;99.90
52187;DHT22;38161;53.020;6.598;2022-09-09T04:30:45;14.40;99.90
52187;DHT22;38161;53.020;6.598;2022-09-09T04:33:12;14.50;99.90
52187;DHT22;38161;53.020;6.598;2022-09-09T04:35:38;14.40;99.90
52187;DHT22;38161;53.020;6.598;2022-09-09T04:38:04;14.40;99.90
52187;DHT22;38161;53.020;6.598;2022-09-09T04:40:31;14.40;99.90
52187;DHT22;38161;53.020;6.598;2022-09-09T04:43:00;14.40;99.90
52187;DHT22;38161;53.020;6.598;2022-09-09T04:45:26;14.40;99.90
52187;DHT22;38161;53.020;6.598;2022-09-09T04:47:52;14.40;99.90
52187;DHT22;38161;53.020;6.598;2022-09-09T04:50:19;14.40;99.90
52187;DHT22;38161;53.020;6.598;2022-09-09T04:52:44;14.40;99.90
52187;DHT22;38161;53.020;6.598;2022-09-09T04:55:10;14.40;99.90
52187;DHT22;38161;53.020;6.598;2022-09-09T04:57:38;14.40;99.90
52187;DHT22;38161;53.020;6.598;2022-09-09T05:00:04;14.40;99.90
52187;DHT22;38161;53.020;6.598;2022-09-09T05:02:30;14.40;99.90
52187;DHT22;38161;53.020;6.598;2022-09-09T05:04:57;14.40;99.90
52187;DHT22;38161;53.020;6.598;2022-09-09T05:07:23;14.40;99.90
52187;DHT22;38161;53.020;6.598;2022-09-09T05:09:49;14.40;99.90
52187;DHT22;38161;53.020;6.598;2022-09-09T05:12:18;14.40;99.90
52187;DHT22;38161;53.020;6.598;2022-09-09T05:14:44;14.40;99.90
52187;DHT22;38161;53.020;6.598;2022-09-09T05:17:10;14.40;99.90
52187;DHT22;38161;53.020;6.598;2022-09-09T05:19:36;14.40;99.90
52187;DHT22;38161;53.020;6.598;2022-09-09T05:22:02;14.40;99.90
52187;DHT22;38161;53.020;6.598;2022-09-09T05:24:28;14.30;99.90
52187;DHT22;38161;53.020;6.598;2022-09-09T05:26:54;14.40;99.90
52187;DHT22;38161;53.020;6.598;2022-09-09T05:29:23;14.40;99.90
52187;DHT22;38161;53.020;6.598;2022-09-09T05:31:49;14.40;99.90
52187;DHT22;38161;53.020;6.598;2022-09-09T05:34:14;14.40;99.90
52187;DHT22;38161;53.020;6.598;2022-09-09T05:36:40;14.40;99.90
52187;DHT22;38161;53.020;6.598;2022-09-09T05:39:06;14.40;99.90
52187;DHT22;38161;53.020;6.598;2022-09-09T05:41:32;14.40;99.90
52187;DHT22;38161;53.020;6.598;2022-09-09T05:43:58;14.40;99.90
52187;DHT22;38161;53.020;6.598;2022-09-09T05:46:27;14.40;99.90
52187;DHT22;38161;53.020;6.598;2022-09-09T05:48:53;14.40;99.90
52187;DHT22;38161;53.020;6.598;2022-09-09T05:51:21;14.40;99.90
52187;DHT22;38161;53.020;6.598;2022-09-09T05:53:48;14.40;99.90
52187;DHT22;38161;53.020;6.598;2022-09-09T05:56:15;14.40;99.90
52187;DHT22;38161;53.020;6.598;2022-09-09T05:58:41;14.40;99.90
52187;DHT22;38161;53.020;6.598;2022-09-09T06:01:14;14.40;99.90
52187;DHT22;38161;53.020;6.598;2022-09-09T06:03:42;14.40;99.90
52187;DHT22;38161;53.020;6.598;2022-09-09T06:06:10;14.40;99.90
52187;DHT22;38161;53.020;6.598;2022-09-09T06:08:39;14.40;99.90
52187;DHT22;38161;53.020;6.598;2022-09-09T06:11:23;14.40;99.90
52187;DHT22;38161;53.020;6.598;2022-09-09T06:13:50;14.30;99.90
52187;DHT22;38161;53.020;6.598;2022-09-09T06:16:19;14.30;99.90
52187;DHT22;38161;53.020;6.598;2022-09-09T06:18:46;14.40;99.90
52187;DHT22;38161;53.020;6.598;2022-09-09T06:21:20;14.30;99.90
52187;DHT22;38161;53.020;6.598;2022-09-09T06:23:46;14.40;99.90
52187;DHT22;38161;53.020;6.598;2022-09-09T06:26:18;14.40;99.90
52187;DHT22;38161;53.020;6.598;2022-09-09T06:28:45;14.40;99.90
52187;DHT22;38161;53.020;6.598;2022-09-09T06:31:12;14.40;99.90
52187;DHT22;38161;53.020;6.598;2022-09-09T06:33:40;14.40;99.90
52187;DHT22;38161;53.020;6.598;2022-09-09T06:36:14;14.40;99.90
52187;DHT22;38161;53.020;6.598;2022-09-09T06:38:41;14.40;99.90
52187;DHT22;38161;53.020;6.598;2022-09-09T06:41:09;14.40;99.90
52187;DHT22;38161;53.020;6.598;2022-09-09T06:43:35;14.40;99.90
52187;DHT22;38161;53.020;6.598;2022-09-09T06:46:05;14.40;99.90
52187;DHT22;38161;53.020;6.598;2022-09-09T06:48:31;14.50;99.90
52187;DHT22;38161;53.020;6.598;2022-09-09T06:51:05;14.50;99.90
52187;DHT22;38161;53.020;6.598;2022-09-09T06:53:33;14.50;99.90
52187;DHT22;38161;53.020;6.598;2022-09-09T06:56:01;14.50;99.90
52187;DHT22;38161;53.020;6.598;2022-09-09T06:58:28;14.60;99.90
52187;DHT22;38161;53.020;6.598;2022-09-09T07:01:03;14.60;99.90
52187;DHT22;38161;53.020;6.598;2022-09-09T07:03:29;14.60;99.90
52187;DHT22;38161;53.020;6.598;2022-09-09T07:05:58;14.60;99.90
52187;DHT22;38161;53.020;6.598;2022-09-09T07:08:24;14.70;99.90
52187;DHT22;38161;53.020;6.598;2022-09-09T07:10:51;14.70;99.90
52187;DHT22;38161;53.020;6.598;2022-09-09T07:13:23;14.70;99.90
52187;DHT22;38161;53.020;6.598;2022-09-09T07:15:51;14.70;99.90
52187;DHT22;38161;53.020;6.598;2022-09-09T07:18:17;14.80;99.90
52187;DHT22;38161;53.020;6.598;2022-09-09T07:20:43;14.80;99.90
52187;DHT22;38161;53.020;6.598;2022-09-09T07:23:17;14.90;99.90
52187;DHT22;38161;53.020;6.598;2022-09-09T07:25:46;14.90;99.90
52187;DHT22;38161;53.020;6.598;2022-09-09T07:28:13;14.90;99.90
52187;DHT22;38161;53.020;6.598;2022-09-09T07:30:39;15.00;99.90
52187;DHT22;38161;53.020;6.598;2022-09-09T07:33:05;15.00;99.90
52187;DHT22;38161;53.020;6.598;2022-09-09T07:35:31;15.00;99.90
52187;DHT22;38161;53.020;6.598;2022-09-09T07:37:57;15.10;99.90
52187;DHT22;38161;53.020;6.598;2022-09-09T07:40:24;15.10;99.90
52187;DHT22;38161;53.020;6.598;2022-09-09T07:42:50;15.10;99.90
52187;DHT22;38161;53.020;6.598;2022-09-09T07:45:15;15.10;99.90
52187;DHT22;38161;53.020;6.598;2022-09-09T07:47:41;15.10;99.90
52187;DHT22;38161;53.020;6.598;2022-09-09T07:50:10;15.20;99.90
52187;DHT22;38161;53.020;6.598;2022-09-09T07:52:37;15.20;99.90
52187;DHT22;38161;53.020;6.598;2022-09-09T07:55:03;15.20;99.90
52187;DHT22;38161;53.020;6.598;2022-09-09T07:57:30;15.30;99.90
52187;DHT22;38161;53.020;6.598;2022-09-09T07:59:56;15.40;99.90
52187;DHT22;38161;53.020;6.598;2022-09-09T08:02:23;15.50;99.90
52187;DHT22;38161;53.020;6.598;2022-09-09T08:04:51;15.50;99.90
52187;DHT22;38161;53.020;6.598;2022-09-09T08:07:17;15.60;99.90
52187;DHT22;38161;53.020;6.598;2022-09-09T08:09:43;15.70;99.90
52187;DHT22;38161;53.020;6.598;2022-09-09T08:12:09;15.90;99.90
52187;DHT22;38161;53.020;6.598;2022-09-09T08:14:36;16.00;99.90
52187;DHT22;38161;53.020;6.598;2022-09-09T08:17:02;16.10;99.90
52187;DHT22;38161;53.020;6.598;2022-09-09T08:19:28;16.10;99.90
52187;DHT22;38161;53.020;6.598;2022-09-09T08:21:59;16.10;99.90
52187;DHT22;38161;53.020;6.598;2022-09-09T08:24:27;16.10;99.90
52187;DHT22;38161;53.020;6.598;2022-09-09T08:26:53;16.10;99.90
52187;DHT22;38161;53.020;6.598;2022-09-09T08:29:19;16.10;99.90
52187;DHT22;38161;53.020;6.598;2022-09-09T08:31:54;16.20;99.90
52187;DHT22;38161;53.020;6.598;2022-09-09T08:34:21;16.20;99.90
52187;DHT22;38161;53.020;6.598;2022-09-09T08:36:48;16.20;99.90
52187;DHT22;38161;53.020;6.598;2022-09-09T08:39:16;16.20;99.90
52187;DHT22;38161;53.020;6.598;2022-09-09T08:44:50;16.20;99.90
52187;DHT22;38161;53.020;6.598;2022-09-09T08:47:41;16.20;99.90
52187;DHT22;38161;53.020;6.598;2022-09-09T08:55:37;16.50;99.90
52187;DHT22;38161;53.020;6.598;2022-09-09T08:58:31;16.60;99.90
52187;DHT22;38161;53.020;6.598;2022-09-09T09:04:00;16.70;99.90
52187;DHT22;38161;53.020;6.598;2022-09-09T09:09:26;16.70;99.90
52187;DHT22;38161;53.020;6.598;2022-09-09T09:11:58;16.80;99.90
52187;DHT22;38161;53.020;6.598;2022-09-09T09:14:28;16.90;99.90
52187;DHT22;38161;53.020;6.598;2022-09-09T09:17:04;17.10;99.90
52187;DHT22;38161;53.020;6.598;2022-09-09T09:19:35;17.20;99.90
52187;DHT22;38161;53.020;6.598;2022-09-09T09:27:57;17.40;99.90
52187;DHT22;38161;53.020;6.598;2022-09-09T09:29:55;17.50;99.90
52187;DHT22;38161;53.020;6.598;2022-09-09T09:32:22;17.60;99.90
52187;DHT22;38161;53.020;6.598;2022-09-09T09:34:54;17.60;99.90
52187;DHT22;38161;53.020;6.598;2022-09-09T09:37:33;17.70;99.90
52187;DHT22;38161;53.020;6.598;2022-09-09T09:40:29;17.60;99.90
52187;DHT22;38161;53.020;6.598;2022-09-09T09:43:00;17.50;99.90
52187;DHT22;38161;53.020;6.598;2022-09-09T09:45:33;17.50;99.90
52187;DHT22;38161;53.020;6.598;2022-09-09T09:48:02;17.60;99.90
52187;DHT22;38161;53.020;6.598;2022-09-09T09:50:29;17.70;99.90
52187;DHT22;38161;53.020;6.598;2022-09-09T09:53:03;17.70;99.90
52187;DHT22;38161;53.020;6.598;2022-09-09T09:55:33;17.90;99.90
52187;DHT22;38161;53.020;6.598;2022-09-09T09:58:06;18.20;99.90
52187;DHT22;38161;53.020;6.598;2022-09-09T10:00:51;18.30;99.90
52187;DHT22;38161;53.020;6.598;2022-09-09T10:03:36;18.40;99.90
52187;DHT22;38161;53.020;6.598;2022-09-09T10:06:04;18.40;99.90
52187;DHT22;38161;53.020;6.598;2022-09-09T10:08:34;18.40;99.90
52187;DHT22;38161;53.020;6.598;2022-09-09T10:14:24;18.60;99.90
52187;DHT22;38161;53.020;6.598;2022-09-09T10:17:48;18.50;99.90
52187;DHT22;38161;53.020;6.598;2022-09-09T10:22:52;18.30;99.90
52187;DHT22;38161;53.020;6.598;2022-09-09T10:33:53;18.60;99.90
52187;DHT22;38161;53.020;6.598;2022-09-09T10:36:24;18.60;99.90
52187;DHT22;38161;53.020;6.598;2022-09-09T10:39:01;18.60;99.90
52187;DHT22;38161;53.020;6.598;2022-09-09T10:55:16;18.80;99.90
52187;DHT22;38161;53.020;6.598;2022-09-09T11:03:20;19.20;99.90
52187;DHT22;38161;53.020;6.598;2022-09-09T11:05:57;19.50;99.90
52187;DHT22;38161;53.020;6.598;2022-09-09T11:08:29;19.50;99.90
52187;DHT22;38161;53.020;6.598;2022-09-09T11:11:12;19.50;99.90
52187;DHT22;38161;53.020;6.598;2022-09-09T11:14:01;19.40;99.90
52187;DHT22;38161;53.020;6.598;2022-09-09T11:16:56;19.30;99.90
52187;DHT22;38161;53.020;6.598;2022-09-09T11:19:35;19.30;99.90
52187;DHT22;38161;53.020;6.598;2022-09-09T11:22:04;19.20;99.90
52187;DHT22;38161;53.020;6.598;2022-09-09T11:25:01;19.20;99.90
52187;DHT22;38161;53.020;6.598;2022-09-09T11:38:16;19.30;99.90
52187;DHT22;38161;53.020;6.598;2022-09-09T11:40:44;19.20;99.90
52187;DHT22;38161;53.020;6.598;2022-09-09T11:43:13;19.00;99.90
52187;DHT22;38161;53.020;6.598;2022-09-09T11:45:53;19.00;99.90
52187;DHT22;38161;53.020;6.598;2022-09-09T11:51:06;18.90;99.90
52187;DHT22;38161;53.020;6.598;2022-09-09T11:53:34;19.00;99.90
52187;DHT22;38161;53.020;6.598;2022-09-09T11:56:12;19.00;99.90
52187;DHT22;38161;53.020;6.598;2022-09-09T11:59:05;19.00;99.90
52187;DHT22;38161;53.020;6.598;2022-09-09T12:01:42;19.00;99.90
52187;DHT22;38161;53.020;6.598;2022-09-09T12:06:55;18.90;99.90
52187;DHT22;38161;53.020;6.598;2022-09-09T12:10:18;18.90;99.90
52187;DHT22;38161;53.020;6.598;2022-09-09T12:17:30;19.00;99.90
52187;DHT22;38161;53.020;6.598;2022-09-09T12:20:19;19.00;99.90
52187;DHT22;38161;53.020;6.598;2022-09-09T12:23:08;19.10;99.90
52187;DHT22;38161;53.020;6.598;2022-09-09T12:28:24;19.20;99.90
52187;DHT22;38161;53.020;6.598;2022-09-09T12:33:35;19.30;99.90
52187;DHT22;38161;53.020;6.598;2022-09-09T12:36:03;19.30;99.90
52187;DHT22;38161;53.020;6.598;2022-09-09T12:38:39;19.50;99.90
52187;DHT22;38161;53.020;6.598;2022-09-09T12:41:05;19.70;99.90
52187;DHT22;38161;53.020;6.598;2022-09-09T12:43:31;19.90;99.90
52187;DHT22;38161;53.020;6.598;2022-09-09T12:46:07;20.10;99.90
52187;DHT22;38161;53.020;6.598;2022-09-09T12:48:38;20.20;99.90
52187;DHT22;38161;53.020;6.598;2022-09-09T12:51:27;20.10;99.90
52187;DHT22;38161;53.020;6.598;2022-09-09T12:53:54;20.10;99.90
52187;DHT22;38161;53.020;6.598;2022-09-09T12:56:29;20.20;99.90
52187;DHT22;38161;53.020;6.598;2022-09-09T12:58:57;20.20;99.90
52187;DHT22;38161;53.020;6.598;2022-09-09T13:01:31;20.20;99.90
52187;DHT22;38161;53.020;6.598;2022-09-09T13:03:59;20.30;99.90
52187;DHT22;38161;53.020;6.598;2022-09-09T13:06:27;20.30;99.90
52187;DHT22;38161;53.020;6.598;2022-09-09T13:08:54;20.30;99.90
52187;DHT22;38161;53.020;6.598;2022-09-09T13:11:29;20.30;99.90
52187;DHT22;38161;53.020;6.598;2022-09-09T13:13:57;20.40;99.90
52187;DHT22;38161;53.020;6.598;2022-09-09T13:16:27;20.30;99.90
52187;DHT22;38161;53.020;6.598;2022-09-09T13:18:59;20.20;99.90
52187;DHT22;38161;53.020;6.598;2022-09-09T13:21:33;20.10;99.90
52187;DHT22;38161;53.020;6.598;2022-09-09T13:23:59;19.90;99.90
52187;DHT22;38161;53.020;6.598;2022-09-09T13:26:28;19.80;99.90
52187;DHT22;38161;53.020;6.598;2022-09-09T13:29:17;19.70;99.90
52187;DHT22;38161;53.020;6.598;2022-09-09T13:31:44;19.70;99.90
52187;DHT22;38161;53.020;6.598;2022-09-09T13:34:31;19.80;99.90
52187;DHT22;38161;53.020;6.598;2022-09-09T13:37:05;19.90;99.90
52187;DHT22;38161;53.020;6.598;2022-09-09T13:39:36;20.00;99.90
52187;DHT22;38161;53.020;6.598;2022-09-09T13:42:03;20.00;99.90
52187;DHT22;38161;53.020;6.598;2022-09-09T13:44:36;20.00;99.90
52187;DHT22;38161;53.020;6.598;2022-09-09T13:49:34;19.90;99.90
52187;DHT22;38161;53.020;6.598;2022-09-09T13:52:13;19.80;99.90
52187;DHT22;38161;53.020;6.598;2022-09-09T13:54:41;19.70;99.90
52187;DHT22;38161;53.020;6.598;2022-09-09T13:57:23;19.70;99.90
52187;DHT22;38161;53.020;6.598;2022-09-09T13:59:52;19.70;99.90
52187;DHT22;38161;53.020;6.598;2022-09-09T14:02:18;19.70;99.90
52187;DHT22;38161;53.020;6.598;2022-09-09T14:04:44;19.80;99.90
52187;DHT22;38161;53.020;6.598;2022-09-09T14:07:19;19.90;99.90
52187;DHT22;38161;53.020;6.598;2022-09-09T14:09:46;19.80;99.90
52187;DHT22;38161;53.020;6.598;2022-09-09T14:12:16;19.70;99.90
52187;DHT22;38161;53.020;6.598;2022-09-09T14:14:42;19.70;99.90
52187;DHT22;38161;53.020;6.598;2022-09-09T14:17:09;19.60;99.90
52187;DHT22;38161;53.020;6.598;2022-09-09T14:19:35;19.40;99.90
52187;DHT22;38161;53.020;6.598;2022-09-09T14:22:02;19.20;99.90
52187;DHT22;38161;53.020;6.598;2022-09-09T14:24:28;19.10;99.90
52187;DHT22;38161;53.020;6.598;2022-09-09T14:26:54;18.90;99.90
52187;DHT22;38161;53.020;6.598;2022-09-09T14:29:20;18.70;99.90
52187;DHT22;38161;53.020;6.598;2022-09-09T14:31:46;18.70;99.90
52187;DHT22;38161;53.020;6.598;2022-09-09T14:34:13;18.70;99.90
52187;DHT22;38161;53.020;6.598;2022-09-09T14:36:40;18.80;99.90
52187;DHT22;38161;53.020;6.598;2022-09-09T14:39:07;18.80;99.90
52187;DHT22;38161;53.020;6.598;2022-09-09T14:41:33;18.80;99.90
52187;DHT22;38161;53.020;6.598;2022-09-09T14:43:59;18.90;99.90
52187;DHT22;38161;53.020;6.598;2022-09-09T14:46:25;18.90;99.90
52187;DHT22;38161;53.020;6.598;2022-09-09T14:48:52;18.90;99.90
52187;DHT22;38161;53.020;6.598;2022-09-09T14:51:23;18.90;99.90
52187;DHT22;38161;53.020;6.598;2022-09-09T14:53:51;18.90;99.90
52187;DHT22;38161;53.020;6.598;2022-09-09T14:56:19;18.90;99.90
52187;DHT22;38161;53.020;6.598;2022-09-09T14:58:47;18.90;99.90
52187;DHT22;38161;53.020;6.598;2022-09-09T15:01:16;18.90;99.90
52187;DHT22;38161;53.020;6.598;2022-09-09T15:03:47;18.90;99.90
52187;DHT22;38161;53.020;6.598;2022-09-09T15:06:14;18.90;99.90
52187;DHT22;38161;53.020;6.598;2022-09-09T15:08:42;18.90;99.90
52187;DHT22;38161;53.020;6.598;2022-09-09T15:11:09;18.90;99.90
52187;DHT22;38161;53.020;6.598;2022-09-09T15:13:36;19.00;99.90
52187;DHT22;38161;53.020;6.598;2022-09-09T15:16:07;19.00;99.90
52187;DHT22;38161;53.020;6.598;2022-09-09T15:18:33;19.00;99.90
52187;DHT22;38161;53.020;6.598;2022-09-09T15:21:00;19.00;99.90
52187;DHT22;38161;53.020;6.598;2022-09-09T15:23:27;19.00;99.90
52187;DHT22;38161;53.020;6.598;2022-09-09T15:25:54;19.00;99.90
52187;DHT22;38161;53.020;6.598;2022-09-09T15:28:20;19.10;99.90
52187;DHT22;38161;53.020;6.598;2022-09-09T15:30:50;19.10;99.90
52187;DHT22;38161;53.020;6.598;2022-09-09T15:33:18;19.10;99.90
52187;DHT22;38161;53.020;6.598;2022-09-09T15:35:44;19.20;99.90
52187;DHT22;38161;53.020;6.598;2022-09-09T15:38:10;19.10;99.90
52187;DHT22;38161;53.020;6.598;2022-09-09T15:40:39;19.10;99.90
52187;DHT22;38161;53.020;6.598;2022-09-09T15:43:06;19.10;99.90
52187;DHT22;38161;53.020;6.598;2022-09-09T15:45:32;19.00;99.90
52187;DHT22;38161;53.020;6.598;2022-09-09T15:48:00;18.90;99.90
52187;DHT22;38161;53.020;6.598;2022-09-09T15:50:26;18.90;99.90
52187;DHT22;38161;53.020;6.598;2022-09-09T15:52:52;18.80;99.90
52187;DHT22;38161;53.020;6.598;2022-09-09T15:55:19;18.80;99.90
52187;DHT22;38161;53.020;6.598;2022-09-09T15:57:46;18.70;99.90
52187;DHT22;38161;53.020;6.598;2022-09-09T16:00:12;18.70;99.90
52187;DHT22;38161;53.020;6.598;2022-09-09T16:02:39;18.60;99.90
52187;DHT22;38161;53.020;6.598;2022-09-09T16:05:05;18.60;99.90
52187;DHT22;38161;53.020;6.598;2022-09-09T16:07:31;18.50;99.90
52187;DHT22;38161;53.020;6.598;2022-09-09T16:09:57;18.50;99.90
52187;DHT22;38161;53.020;6.598;2022-09-09T16:12:23;18.40;99.90
52187;DHT22;38161;53.020;6.598;2022-09-09T16:14:49;18.40;99.90
52187;DHT22;38161;53.020;6.598;2022-09-09T16:17:15;18.30;99.90
52187;DHT22;38161;53.020;6.598;2022-09-09T16:19:41;18.30;99.90
52187;DHT22;38161;53.020;6.598;2022-09-09T16:22:06;18.30;99.90
52187;DHT22;38161;53.020;6.598;2022-09-09T16:24:33;18.30;99.90
52187;DHT22;38161;53.020;6.598;2022-09-09T16:26:59;18.20;99.90
52187;DHT22;38161;53.020;6.598;2022-09-09T16:29:25;18.20;99.90
52187;DHT22;38161;53.020;6.598;2022-09-09T16:31:53;18.20;99.90
52187;DHT22;38161;53.020;6.598;2022-09-09T16:34:20;18.10;99.90
52187;DHT22;38161;53.020;6.598;2022-09-09T16:36:47;18.10;99.90
52187;DHT22;38161;53.020;6.598;2022-09-09T16:39:19;18.10;99.90
52187;DHT22;38161;53.020;6.598;2022-09-09T16:41:47;18.10;99.90
52187;DHT22;38161;53.020;6.598;2022-09-09T16:44:15;18.00;99.90
52187;DHT22;38161;53.020;6.598;2022-09-09T16:46:44;18.00;99.90
52187;DHT22;38161;53.020;6.598;2022-09-09T16:49:12;18.00;99.90
52187;DHT22;38161;53.020;6.598;2022-09-09T16:51:43;18.00;99.90
52187;DHT22;38161;53.020;6.598;2022-09-09T16:54:10;18.00;99.90
52187;DHT22;38161;53.020;6.598;2022-09-09T16:56:38;18.00;99.90
52187;DHT22;38161;53.020;6.598;2022-09-09T16:59:12;18.00;99.90
52187;DHT22;38161;53.020;6.598;2022-09-09T17:01:39;18.00;99.90
52187;DHT22;38161;53.020;6.598;2022-09-09T17:04:08;18.00;99.90
52187;DHT22;38161;53.020;6.598;2022-09-09T17:06:35;18.00;99.90
52187;DHT22;38161;53.020;6.598;2022-09-09T17:09:05;18.10;99.90
52187;DHT22;38161;53.020;6.598;2022-09-09T17:11:32;18.00;99.90
52187;DHT22;38161;53.020;6.598;2022-09-09T17:13:58;18.00;99.90
52187;DHT22;38161;53.020;6.598;2022-09-09T17:16:26;18.00;99.90
52187;DHT22;38161;53.020;6.598;2022-09-09T17:18:55;18.00;99.90
52187;DHT22;38161;53.020;6.598;2022-09-09T17:21:23;18.00;99.90
52187;DHT22;38161;53.020;6.598;2022-09-09T17:23:51;17.90;99.90
52187;DHT22;38161;53.020;6.598;2022-09-09T17:26:19;17.90;99.90
52187;DHT22;38161;53.020;6.598;2022-09-09T17:28:46;17.90;99.90
52187;DHT22;38161;53.020;6.598;2022-09-09T17:31:14;17.90;99.90
52187;DHT22;38161;53.020;6.598;2022-09-09T17:33:43;17.80;99.90
52187;DHT22;38161;53.020;6.598;2022-09-09T17:36:18;17.80;99.90
52187;DHT22;38161;53.020;6.598;2022-09-09T17:38:44;17.80;99.90
52187;DHT22;38161;53.020;6.598;2022-09-09T17:41:14;17.80;99.90
52187;DHT22;38161;53.020;6.598;2022-09-09T17:43:40;17.80;99.90